Time;durP1;ratioP1;P1;durP2;ratioP2;P2;SDS_P1;SDS_P2;PMS_P1;PMS_P2;Temp;Humidity;BMP_temperature;BMP_pressure;BME280_temperature;BME280_humidity;BME280_pressure;Samples;Min_cycle;Max_cycle;Signal;HPM_P1;HPM_P2
2023/12/20 00:01:26;;;;;;;0.30;0.30;;;;;;;14.00;62.49;101486.94;5069058;28;20064;-61
2023/12/20 00:03:51;;;;;;;0.30;0.30;;;;;;;13.92;63.14;101489.13;5070093;28;20107;-64
2023/12/20 00:06:17;;;;;;;0.30;0.30;;;;;;;14.68;60.14;101489.13;5071421;28;20817;-63
2023/12/20 00:08:42;;;;;;;0.50;0.50;;;;;;;14.01;62.16;101485.06;5071506;28;20098;-62
2023/12/20 00:11:07;;;;;;;0.30;0.30;;;;;;;14.22;60.30;101475.56;5071706;28;20056;-63
2023/12/20 00:13:33;;;;;;;0.40;0.40;;;;;;;13.85;61.96;101474.91;5052935;28;20140;-62
2023/12/20 00:15:58;;;;;;;0.38;0.38;;;;;;;14.05;61.86;101462.72;5071963;28;20756;-63
2023/12/20 00:18:23;;;;;;;0.20;0.20;;;;;;;14.28;60.38;101470.09;5071417;28;20047;-62
2023/12/20 00:20:49;;;;;;;0.30;0.30;;;;;;;14.25;60.83;101478.59;5071448;28;20192;-63
2023/12/20 00:23:14;;;;;;;0.30;0.30;;;;;;;14.10;60.34;101475.53;5071308;28;20044;-63
2023/12/20 00:25:40;;;;;;;0.40;0.40;;;;;;;14.27;59.45;101471.09;5053057;28;20115;-61
2023/12/20 00:28:06;;;;;;;0.40;0.40;;;;;;;13.68;61.99;101471.22;5070296;28;20421;-62
2023/12/20 00:30:31;;;;;;;0.45;0.45;;;;;;;13.39;63.17;101459.38;5072213;28;20028;-63
2023/12/20 00:32:56;;;;;;;0.50;0.50;;;;;;;13.70;62.71;101458.31;5070937;28;20172;-63
2023/12/20 00:35:22;;;;;;;0.30;0.30;;;;;;;13.67;62.64;101456.91;5071132;28;20059;-64
2023/12/20 00:37:47;;;;;;;0.20;0.20;;;;;;;13.77;62.46;101459.88;5071162;28;20064;-63
2023/12/20 00:40:12;;;;;;;0.40;0.40;;;;;;;14.03;60.43;101454.03;5070920;28;20042;-64
2023/12/20 00:42:38;;;;;;;0.40;0.40;;;;;;;13.55;62.01;101456.03;5071877;28;20610;-61
2023/12/20 00:45:04;;;;;;;0.40;0.40;;;;;;;14.59;59.03;101464.31;5071301;28;20032;-62
2023/12/20 00:47:30;;;;;;;0.35;0.35;;;;;;;14.03;60.24;101461.34;5070906;28;20032;-62
2023/12/20 00:49:56;;;;;;;0.38;0.38;;;;;;;13.24;63.45;101467.06;5070974;28;20040;-63
2023/12/20 00:52:22;;;;;;;0.30;0.30;;;;;;;13.54;61.85;101467.88;5071224;28;20037;-62
2023/12/20 00:54:48;;;;;;;0.40;0.40;;;;;;;13.49;61.33;101458.81;5052347;28;20090;-62
2023/12/20 00:57:13;;;;;;;0.30;0.30;;;;;;;14.13;59.07;101458.06;5070643;28;20436;-62
2023/12/20 00:59:38;;;;;;;0.40;0.40;;;;;;;14.04;60.04;101457.56;5070614;28;20064;-63
2023/12/20 01:02:04;;;;;;;0.40;0.40;;;;;;;13.77;62.75;101461.72;5073822;28;20111;-62
2023/12/20 01:04:29;;;;;;;0.43;0.43;;;;;;;13.18;62.87;101455.28;5071293;28;20044;-63
2023/12/20 01:06:54;;;;;;;0.40;0.40;;;;;;;13.47;62.74;101463.63;5070797;28;20090;-63
2023/12/20 01:09:23;;;;;;;0.30;0.30;;;;;;;13.61;63.33;101449.72;5070213;28;20488;-63
2023/12/20 01:11:48;;;;;;;0.38;0.38;;;;;;;13.30;63.87;101454.50;5069966;28;20052;-61
2023/12/20 01:14:14;;;;;;;0.25;0.25;;;;;;;13.24;64.70;101458.94;5070180;28;20047;-64
2023/12/20 01:16:39;;;;;;;0.40;0.40;;;;;;;12.50;66.68;101451.03;5051868;28;20511;-62
2023/12/20 01:19:04;;;;;;;0.55;0.55;;;;;;;12.54;66.93;101452.25;5070063;28;20028;-63
2023/12/20 01:21:30;;;;;;;0.45;0.45;;;;;;;12.86;66.14;101461.03;5062257;28;20040;-64
2023/12/20 01:23:55;;;;;;;0.50;0.50;;;;;;;12.73;65.57;101456.63;5069475;28;20119;-62
2023/12/20 01:26:20;;;;;;;0.35;0.35;;;;;;;12.41;67.73;101452.41;5061930;28;20037;-64
2023/12/20 01:28:46;;;;;;;0.35;0.35;;;;;;;13.14;63.99;101447.88;5069840;28;20115;-61
2023/12/20 01:31:11;;;;;;;0.30;0.30;;;;;;;12.71;65.25;101447.09;5069984;28;20166;-63
2023/12/20 01:33:36;;;;;;;0.40;0.40;;;;;;;12.75;64.77;101451.84;5070688;28;20098;-61
2023/12/20 01:36:02;;;;;;;0.40;0.40;;;;;;;13.23;61.76;101462.69;5069856;28;20076;-62
2023/12/20 01:38:27;;;;;;;0.40;0.40;;;;;;;13.34;60.99;101453.84;5070251;28;20090;-62
2023/12/20 01:40:53;;;;;;;0.30;0.30;;;;;;;13.26;62.95;101447.91;5050753;28;20097;-63
2023/12/20 01:43:18;;;;;;;0.25;0.25;;;;;;;13.07;61.69;101452.53;5069792;28;20032;-64
2023/12/20 01:45:44;;;;;;;0.50;0.50;;;;;;;12.68;64.22;101445.69;5070760;28;20715;-64
2023/12/20 01:48:11;;;;;;;0.40;0.40;;;;;;;12.59;64.86;101441.63;5071734;28;20075;-63
2023/12/20 01:50:37;;;;;;;0.55;0.55;;;;;;;12.88;63.09;101440.88;5069790;28;20131;-62
2023/12/20 01:53:05;;;;;;;0.30;0.30;;;;;;;13.00;64.30;101435.56;5051628;28;20036;-63
2023/12/20 01:55:34;;;;;;;0.25;0.25;;;;;;;12.78;64.90;101437.91;5069337;28;20035;-62
2023/12/20 01:58:00;;;;;;;0.40;0.40;;;;;;;12.53;65.21;101439.84;5068677;28;20483;-63
2023/12/20 02:00:27;;;;;;;0.40;0.40;;;;;;;13.03;64.22;101443.22;5067905;28;20067;-63
2023/12/20 02:02:57;;;;;;;0.50;0.50;;;;;;;12.74;65.58;101447.47;5067681;28;20124;-62
2023/12/20 02:05:23;;;;;;;0.43;0.43;;;;;;;12.61;66.81;101446.81;5062029;28;20036;-63
2023/12/20 02:07:49;;;;;;;0.50;0.50;;;;;;;12.81;65.38;101444.72;5067797;28;20044;-63
2023/12/20 02:10:15;;;;;;;0.32;0.32;;;;;;;12.03;68.66;101449.81;5067374;28;20515;-63
2023/12/20 02:12:41;;;;;;;0.30;0.30;;;;;;;12.94;66.87;101433.75;5068462;28;20028;-64
2023/12/20 02:15:07;;;;;;;0.40;0.40;;;;;;;13.38;64.72;101433.44;5067909;28;20143;-62
2023/12/20 02:17:32;;;;;;;0.28;0.28;;;;;;;12.37;68.07;101426.94;5068228;28;20079;-65
2023/12/20 02:19:58;;;;;;;0.32;0.32;;;;;;;12.51;67.54;101430.31;5067549;28;20044;-63
2023/12/20 02:22:23;;;;;;;0.40;0.40;;;;;;;11.92;69.34;101422.78;5067411;28;20297;-63
2023/12/20 02:24:48;;;;;;;0.30;0.30;;;;;;;13.36;64.96;101424.75;5067847;28;20154;-62
2023/12/20 02:27:17;;;;;;;0.38;0.38;;;;;;;12.94;66.38;101429.19;5067800;28;20128;-64
2023/12/20 02:29:43;;;;;;;0.40;0.40;;;;;;;13.10;66.24;101425.09;5067675;28;20455;-63
2023/12/20 02:32:08;;;;;;;0.35;0.35;;;;;;;13.08;65.06;101417.22;5067697;28;20159;-62
2023/12/20 02:34:33;;;;;;;0.32;0.32;;;;;;;12.26;67.32;101417.69;5067599;28;20102;-61
2023/12/20 02:36:59;;;;;;;0.35;0.35;;;;;;;13.35;64.25;101422.25;5067743;28;20066;-62
2023/12/20 02:39:24;;;;;;;0.43;0.43;;;;;;;12.54;68.21;101425.28;5066987;28;20040;-63
2023/12/20 02:41:49;;;;;;;0.40;0.40;;;;;;;12.67;67.70;101417.06;5067814;28;20060;-63
2023/12/20 02:44:15;;;;;;;0.30;0.30;;;;;;;13.04;66.23;101410.63;5067386;28;20052;-63
2023/12/20 02:46:40;;;;;;;0.50;0.50;;;;;;;13.08;66.09;101411.00;5067276;28;20049;-63
2023/12/20 02:49:06;;;;;;;0.52;0.52;;;;;;;13.12;65.91;101410.31;5068033;28;20126;-61
2023/12/20 02:51:31;;;;;;;0.20;0.20;;;;;;;12.58;67.69;101404.94;5066879;28;20105;-62
2023/12/20 02:53:57;;;;;;;0.40;0.40;;;;;;;12.80;67.26;101413.38;5067234;28;20045;-63
2023/12/20 02:56:22;;;;;;;0.40;0.40;;;;;;;12.96;66.38;101408.22;5048764;28;20127;-63
2023/12/20 02:58:47;;;;;;;0.50;0.50;;;;;;;12.94;66.71;101404.09;5067505;28;20158;-64
2023/12/20 03:01:13;;;;;;;0.50;0.50;;;;;;;13.66;63.72;101393.13;5067064;28;20039;-63
2023/12/20 03:03:38;;;;;;;0.50;0.50;;;;;;;13.25;66.18;101390.41;5067924;28;20107;-63
2023/12/20 03:06:03;;;;;;;0.40;0.40;;;;;;;12.88;67.15;101394.19;5067223;28;20139;-63
2023/12/20 03:08:29;;;;;;;0.40;0.40;;;;;;;13.22;66.02;101385.50;5066927;28;20438;-61
2023/12/20 03:10:54;;;;;;;0.30;0.30;;;;;;;13.44;64.78;101373.13;5066687;28;20408;-62
2023/12/20 03:13:19;;;;;;;0.40;0.40;;;;;;;12.66;67.80;101383.06;5067150;28;20768;-62
2023/12/20 03:15:48;;;;;;;0.30;0.30;;;;;;;13.26;66.57;101383.16;5067313;28;20075;-63
2023/12/20 03:18:13;;;;;;;0.45;0.45;;;;;;;13.24;66.25;101383.38;5069335;28;20347;-62
2023/12/20 03:20:40;;;;;;;0.40;0.40;;;;;;;13.69;65.06;101387.25;5067635;28;20085;-62
2023/12/20 03:23:06;;;;;;;0.50;0.50;;;;;;;13.54;64.77;101396.84;5067662;28;20408;-63
2023/12/20 03:25:31;;;;;;;0.50;0.50;;;;;;;13.35;65.35;101389.84;5067028;28;20036;-63
2023/12/20 03:27:56;;;;;;;0.40;0.40;;;;;;;12.97;66.19;101390.97;5066836;28;20036;-63
2023/12/20 03:30:22;;;;;;;0.40;0.40;;;;;;;14.06;62.94;101385.19;5066552;28;20123;-62
2023/12/20 03:32:47;;;;;;;0.20;0.20;;;;;;;13.90;62.36;101380.47;5066618;28;20110;-63
2023/12/20 03:35:13;;;;;;;0.32;0.32;;;;;;;13.47;64.62;101379.91;5066461;28;20047;-61
2023/12/20 03:37:38;;;;;;;0.45;0.45;;;;;;;13.16;66.48;101389.94;5067202;28;20071;-66
2023/12/20 03:40:04;;;;;;;0.30;0.30;;;;;;;13.46;64.96;101383.69;5066905;28;20166;-62
2023/12/20 03:42:29;;;;;;;0.43;0.43;;;;;;;13.36;65.18;101384.25;5067757;28;20036;-63
2023/12/20 03:44:55;;;;;;;0.40;0.40;;;;;;;13.54;65.03;101375.25;5066682;28;20488;-64
2023/12/20 03:47:20;;;;;;;0.40;0.40;;;;;;;13.34;64.36;101380.13;5066554;28;20042;-64
2023/12/20 03:49:45;;;;;;;0.30;0.30;;;;;;;13.86;62.46;101373.88;5066822;28;20137;-63
2023/12/20 03:52:11;;;;;;;0.40;0.40;;;;;;;13.46;63.89;101373.72;5067055;28;20035;-62
2023/12/20 03:54:37;;;;;;;0.32;0.32;;;;;;;13.26;64.89;101383.16;5067384;28;20033;-62
2023/12/20 03:57:04;;;;;;;0.17;0.17;;;;;;;12.98;65.92;101391.78;5066336;28;20144;-62
2023/12/20 03:59:30;;;;;;;0.40;0.40;;;;;;;13.77;63.22;101386.94;5066453;28;20045;-62
2023/12/20 04:01:55;;;;;;;0.40;0.40;;;;;;;12.41;67.60;101384.19;5049099;28;20492;-62
2023/12/20 04:04:20;;;;;;;0.40;0.40;;;;;;;12.92;66.08;101381.91;5070189;28;20074;-63
2023/12/20 04:06:46;;;;;;;0.40;0.40;;;;;;;13.33;63.92;101362.28;5070918;28;20478;-62
2023/12/20 04:09:12;;;;;;;0.20;0.20;;;;;;;13.29;64.88;101371.91;5070161;28;20071;-62
2023/12/20 04:11:37;;;;;;;0.40;0.40;;;;;;;13.58;64.44;101355.63;5063143;28;20080;-64
2023/12/20 04:14:04;;;;;;;0.40;0.40;;;;;;;12.93;64.96;101356.59;5069591;28;20032;-62
2023/12/20 04:16:30;;;;;;;0.40;0.40;;;;;;;13.05;65.14;101360.22;5070486;28;20408;-62
2023/12/20 04:18:55;;;;;;;0.50;0.50;;;;;;;14.34;61.07;101358.28;5071341;28;20044;-62
2023/12/20 04:21:20;;;;;;;0.30;0.30;;;;;;;13.11;64.33;101368.19;5070680;28;20484;-62
2023/12/20 04:23:46;;;;;;;0.40;0.40;;;;;;;14.06;61.46;101358.16;5070347;28;20556;-62
2023/12/20 04:26:11;;;;;;;0.40;0.40;;;;;;;13.78;62.99;101355.31;5069422;28;20040;-62
2023/12/20 04:28:36;;;;;;;0.30;0.30;;;;;;;13.10;64.96;101354.94;5069891;28;20040;-61
2023/12/20 04:31:02;;;;;;;0.40;0.40;;;;;;;13.49;63.76;101353.50;5069218;28;20063;-63
2023/12/20 04:33:27;;;;;;;0.20;0.20;;;;;;;13.78;62.57;101339.09;5069898;28;20141;-62
2023/12/20 04:35:53;;;;;;;0.30;0.30;;;;;;;13.48;63.95;101346.47;5070441;28;20094;-62
2023/12/20 04:38:18;;;;;;;0.25;0.25;;;;;;;13.41;63.50;101345.75;5069741;28;20040;-63
2023/12/20 04:40:43;;;;;;;0.30;0.30;;;;;;;12.78;66.50;101351.59;5069782;28;20036;-61
2023/12/20 04:43:09;;;;;;;0.30;0.30;;;;;;;13.57;64.07;101348.59;5070140;28;20044;-63
2023/12/20 04:45:35;;;;;;;0.20;0.20;;;;;;;13.10;64.95;101349.53;5070236;28;20039;-63
2023/12/20 04:48:01;;;;;;;0.28;0.28;;;;;;;13.74;63.29;101340.63;5070247;28;20040;-61
2023/12/20 04:50:27;;;;;;;0.40;0.40;;;;;;;13.35;63.54;101342.09;5069969;28;20071;-61
2023/12/20 04:52:52;;;;;;;0.30;0.30;;;;;;;12.51;66.60;101349.44;5069618;28;20060;-63
2023/12/20 04:55:17;;;;;;;0.30;0.30;;;;;;;13.12;64.81;101358.22;5069937;28;20032;-63
2023/12/20 04:57:43;;;;;;;0.47;0.47;;;;;;;12.99;66.15;101348.41;5070539;28;20056;-61
2023/12/20 05:00:09;;;;;;;0.38;0.38;;;;;;;13.26;63.86;101351.59;5069590;28;20378;-62
2023/12/20 05:02:35;;;;;;;0.32;0.32;;;;;;;13.51;63.78;101349.53;5067528;28;20040;-63
2023/12/20 05:05:01;;;;;;;0.30;0.30;;;;;;;13.24;64.58;101351.00;5068750;28;20040;-62
2023/12/20 05:07:26;;;;;;;0.60;0.60;;;;;;;13.52;64.79;101348.47;5068504;28;20510;-63
2023/12/20 05:09:51;;;;;;;0.30;0.30;;;;;;;13.19;65.14;101346.28;5069335;28;20067;-63
2023/12/20 05:12:17;;;;;;;0.40;0.40;;;;;;;13.40;64.90;101338.72;5068817;28;20170;-62
2023/12/20 05:14:42;;;;;;;0.20;0.20;;;;;;;12.97;66.34;101337.00;5067594;28;20043;-62
2023/12/20 05:17:07;;;;;;;0.47;0.47;;;;;;;13.23;66.06;101330.44;5067695;28;20043;-61
2023/12/20 05:19:35;;;;;;;0.40;0.40;;;;;;;13.21;65.07;101325.28;5068664;28;20032;-63
2023/12/20 05:22:01;;;;;;;0.38;0.38;;;;;;;13.14;65.34;101321.88;5069521;28;20103;-62
2023/12/20 05:24:26;;;;;;;0.40;0.40;;;;;;;13.44;63.53;101332.63;5068924;28;20510;-62
2023/12/20 05:26:52;;;;;;;0.40;0.40;;;;;;;12.65;66.06;101332.06;5068687;28;20033;-63
2023/12/20 05:29:17;;;;;;;0.47;0.47;;;;;;;12.84;65.73;101342.59;5069138;28;20107;-62
2023/12/20 05:31:43;;;;;;;0.40;0.40;;;;;;;12.80;66.79;101343.25;5068684;28;20511;-61
2023/12/20 05:34:08;;;;;;;0.30;0.30;;;;;;;13.12;65.20;101342.88;5068384;28;20071;-63
2023/12/20 05:36:33;;;;;;;0.22;0.22;;;;;;;13.11;65.20;101337.69;5069005;28;20033;-62
2023/12/20 05:38:59;;;;;;;0.30;0.30;;;;;;;12.80;66.64;101330.59;5068679;28;20062;-63
2023/12/20 05:41:24;;;;;;;0.30;0.30;;;;;;;13.10;65.09;101336.03;5068471;28;20856;-61
2023/12/20 05:43:49;;;;;;;0.28;0.28;;;;;;;13.12;65.30;101326.69;5068791;28;20100;-62
2023/12/20 05:46:15;;;;;;;0.35;0.35;;;;;;;12.73;66.55;101348.75;5068770;28;20032;-62
2023/12/20 05:48:40;;;;;;;0.50;0.50;;;;;;;12.93;65.62;101343.13;5051121;28;20048;-60
2023/12/20 05:51:05;;;;;;;0.50;0.50;;;;;;;13.63;64.53;101334.19;5068325;28;20089;-61
2023/12/20 05:53:31;;;;;;;0.20;0.20;;;;;;;14.28;61.39;101331.38;5049214;28;20075;-62
2023/12/20 05:55:56;;;;;;;0.30;0.30;;;;;;;13.08;65.59;101325.50;5068309;28;20067;-61
2023/12/20 05:58:22;;;;;;;0.47;0.47;;;;;;;13.73;63.21;101318.22;5070080;28;20168;-62
2023/12/20 06:00:48;;;;;;;0.40;0.40;;;;;;;13.36;63.32;101330.25;5077733;28;20055;-63
2023/12/20 06:03:14;;;;;;;0.20;0.20;;;;;;;13.38;63.72;101322.75;5070645;28;20097;-62
2023/12/20 06:05:39;;;;;;;0.30;0.30;;;;;;;12.87;65.66;101328.66;5070043;28;20583;-61
2023/12/20 06:08:05;;;;;;;0.30;0.30;;;;;;;13.19;64.91;101319.28;5072009;28;20432;-63
2023/12/20 06:10:30;;;;;;;0.38;0.38;;;;;;;13.06;64.76;101324.06;5068858;28;20056;-62
2023/12/20 06:12:57;;;;;;;0.40;0.40;;;;;;;13.08;63.89;101325.50;5076274;28;20500;-62
2023/12/20 06:15:23;;;;;;;0.30;0.30;;;;;;;13.56;63.78;101317.25;5067915;28;20404;-63
2023/12/20 06:17:48;;;;;;;0.30;0.30;;;;;;;12.93;64.48;101319.63;5074322;28;20195;-61
2023/12/20 06:20:13;;;;;;;0.20;0.20;;;;;;;13.41;63.55;101319.56;5067387;28;20053;-62
2023/12/20 06:22:39;;;;;;;0.32;0.32;;;;;;;13.11;64.16;101319.63;5068308;28;20402;-62
2023/12/20 06:25:05;;;;;;;0.35;0.35;;;;;;;12.96;65.50;101316.50;5067920;28;20029;-62
2023/12/20 06:27:32;;;;;;;0.50;0.50;;;;;;;12.75;65.89;101314.31;5068077;28;20032;-62
2023/12/20 06:29:57;;;;;;;0.30;0.30;;;;;;;13.42;64.76;101307.75;5067802;28;20047;-62
2023/12/20 06:32:23;;;;;;;0.22;0.22;;;;;;;13.74;62.25;101300.13;5067800;28;20408;-62
2023/12/20 06:34:49;;;;;;;0.38;0.38;;;;;;;13.49;63.45;101324.66;5064236;28;20137;-62
2023/12/20 06:37:15;;;;;;;0.40;0.40;;;;;;;13.15;65.17;101310.00;5059993;28;20043;-62
2023/12/20 06:39:40;;;;;;;0.40;0.40;;;;;;;13.51;63.35;101311.72;5065184;28;20474;-62
2023/12/20 06:42:05;;;;;;;0.38;0.38;;;;;;;12.98;65.53;101313.56;5067682;28;20119;-62
2023/12/20 06:44:31;;;;;;;0.30;0.30;;;;;;;12.94;65.88;101313.19;5049258;28;20054;-61
2023/12/20 06:46:57;;;;;;;0.20;0.20;;;;;;;13.83;62.26;101310.34;5068243;28;20040;-63
2023/12/20 06:49:22;;;;;;;0.32;0.32;;;;;;;12.90;65.92;101320.09;5049835;28;20396;-62
2023/12/20 06:51:47;;;;;;;0.22;0.22;;;;;;;13.03;65.48;101336.13;5068005;28;20054;-62
2023/12/20 06:54:13;;;;;;;0.30;0.30;;;;;;;13.30;63.92;101315.00;5067536;28;20037;-62
2023/12/20 06:56:38;;;;;;;0.20;0.20;;;;;;;13.67;63.60;101312.91;5047943;28;20178;-64
2023/12/20 06:59:03;;;;;;;0.40;0.40;;;;;;;13.81;62.59;101314.34;5064425;28;20127;-62
2023/12/20 07:01:29;;;;;;;0.20;0.20;;;;;;;13.30;62.85;101304.19;5064600;28;20123;-63
2023/12/20 07:03:54;;;;;;;0.30;0.30;;;;;;;13.42;63.75;101306.91;5067766;28;20032;-62
2023/12/20 07:06:20;;;;;;;0.30;0.30;;;;;;;13.96;62.24;101295.78;5067360;28;20049;-62
2023/12/20 07:08:45;;;;;;;0.30;0.30;;;;;;;13.94;61.85;101300.59;5067316;28;20040;-63
2023/12/20 07:11:11;;;;;;;0.43;0.43;;;;;;;13.94;62.15;101295.19;5067077;28;20064;-61
2023/12/20 07:13:37;;;;;;;0.22;0.22;;;;;;;13.46;62.81;101318.88;5067416;28;20127;-64
2023/12/20 07:16:02;;;;;;;0.20;0.20;;;;;;;14.25;62.12;101297.50;5067757;28;20085;-62
2023/12/20 07:18:28;;;;;;;0.40;0.40;;;;;;;13.58;62.80;101290.84;5067293;28;20058;-62
2023/12/20 07:20:54;;;;;;;0.30;0.30;;;;;;;13.64;62.99;101281.78;5068135;28;20046;-60
2023/12/20 07:23:20;;;;;;;0.30;0.30;;;;;;;12.96;64.49;101292.22;5068291;28;20051;-62
2023/12/20 07:25:45;;;;;;;0.60;0.60;;;;;;;13.37;64.39;101294.09;5068027;28;20033;-61
2023/12/20 07:28:11;;;;;;;0.30;0.30;;;;;;;12.75;66.16;101283.81;5067398;28;20047;-63
2023/12/20 07:30:36;;;;;;;0.30;0.30;;;;;;;13.93;62.55;101280.88;5067670;28;20502;-61
2023/12/20 07:33:02;;;;;;;0.30;0.30;;;;;;;13.23;64.24;101276.47;5067061;28;20141;-63
2023/12/20 07:35:27;;;;;;;0.35;0.35;;;;;;;13.03;65.65;101281.34;5067318;28;20089;-63
2023/12/20 07:37:53;;;;;;;0.30;0.30;;;;;;;12.99;65.35;101289.03;5068733;28;20082;-62
2023/12/20 07:40:18;;;;;;;0.35;0.35;;;;;;;13.10;65.22;101274.81;5070765;28;20028;-62
2023/12/20 07:42:44;;;;;;;0.30;0.30;;;;;;;13.70;62.70;101269.25;5071785;28;20473;-62
2023/12/20 07:45:10;;;;;;;0.30;0.30;;;;;;;13.25;64.31;101266.25;5071042;28;20575;-62
2023/12/20 07:47:36;;;;;;;0.22;0.22;;;;;;;13.93;62.13;101282.75;5064758;28;20137;-62
2023/12/20 07:50:02;;;;;;;0.20;0.20;;;;;;;13.62;63.18;101283.09;5052587;28;20040;-62
2023/12/20 07:52:28;;;;;;;0.30;0.30;;;;;;;14.07;62.28;101289.56;5070549;28;20040;-61
2023/12/20 07:54:54;;;;;;;0.40;0.40;;;;;;;13.67;63.68;101297.53;5070674;28;20028;-62
2023/12/20 07:57:19;;;;;;;0.30;0.30;;;;;;;13.86;62.79;101298.25;5070539;28;20040;-61
2023/12/20 07:59:45;;;;;;;0.30;0.30;;;;;;;13.70;63.62;101301.66;5062154;28;20458;-61
2023/12/20 08:02:10;;;;;;;0.20;0.20;;;;;;;13.81;63.25;101304.38;5061668;28;20442;-63
2023/12/20 08:04:35;;;;;;;0.20;0.20;;;;;;;13.73;63.00;101310.13;5070342;28;20138;-62
2023/12/20 08:07:01;;;;;;;0.25;0.25;;;;;;;14.11;62.54;101304.25;5071457;28;20056;-62
2023/12/20 08:09:26;;;;;;;0.30;0.30;;;;;;;14.00;62.91;101305.88;5070470;28;20048;-62
2023/12/20 08:11:51;;;;;;;0.20;0.20;;;;;;;13.61;64.27;101309.28;5069488;28;20040;-61
2023/12/20 08:14:17;;;;;;;0.30;0.30;;;;;;;13.23;65.20;101308.06;5070127;28;20522;-62
2023/12/20 08:16:42;;;;;;;0.10;0.10;;;;;;;13.97;63.69;101306.34;5070233;28;20568;-62
2023/12/20 08:19:08;;;;;;;0.20;0.20;;;;;;;12.97;66.45;101301.94;5070248;28;20075;-61
2023/12/20 08:21:33;;;;;;;0.30;0.30;;;;;;;13.76;64.47;101312.34;5052222;28;20044;-62
2023/12/20 08:24:00;;;;;;;0.30;0.30;;;;;;;13.95;63.74;101310.34;5070396;28;20029;-62
2023/12/20 08:26:26;;;;;;;0.50;0.50;;;;;;;13.93;64.17;101307.06;5070011;28;20400;-63
2023/12/20 08:28:51;;;;;;;0.20;0.20;;;;;;;13.92;64.05;101308.94;5066907;28;20063;-61
2023/12/20 08:31:17;;;;;;;0.43;0.43;;;;;;;14.04;64.86;101304.34;5069543;28;20041;-62
2023/12/20 08:33:47;;;;;;;0.30;0.30;;;;;;;14.47;62.04;101311.22;5070385;28;20147;-61
2023/12/20 08:36:13;;;;;;;0.30;0.27;;;;;;;14.10;63.47;101303.41;5069828;28;20040;-62
2023/12/20 08:38:39;;;;;;;0.40;0.40;;;;;;;14.05;64.19;101307.88;5069900;28;20044;-62
2023/12/20 08:41:07;;;;;;;0.28;0.28;;;;;;;14.05;64.58;101299.78;5070362;28;20033;-60
2023/12/20 08:43:36;;;;;;;0.20;0.20;;;;;;;14.19;63.93;101301.13;5048798;28;20037;-61
2023/12/20 08:46:02;;;;;;;0.40;0.40;;;;;;;14.06;64.40;101307.63;5070414;28;20346;-61
2023/12/20 08:48:28;;;;;;;0.30;0.30;;;;;;;13.78;65.48;101314.78;5050843;28;20230;-61
2023/12/20 08:50:53;;;;;;;0.28;0.28;;;;;;;14.58;62.90;101310.41;5076481;28;20032;-62
2023/12/20 08:53:19;;;;;;;0.40;0.40;;;;;;;13.86;65.71;101309.03;5075440;28;20044;-62
2023/12/20 08:55:44;;;;;;;0.30;0.30;;;;;;;13.59;66.62;101305.16;5069238;28;20047;-62
2023/12/20 08:58:10;;;;;;;0.32;0.32;;;;;;;13.83;65.41;101306.81;5069924;28;20607;-62
2023/12/20 09:00:36;;;;;;;0.30;0.30;;;;;;;14.54;63.07;101293.00;5061706;28;20032;-62
2023/12/20 09:03:02;;;;;;;0.20;0.20;;;;;;;13.90;64.06;101310.22;5076526;28;20460;-62
2023/12/20 09:05:28;;;;;;;0.40;0.40;;;;;;;14.15;64.18;101302.69;5078571;28;20052;-62
2023/12/20 09:07:53;;;;;;;0.35;0.35;;;;;;;14.42;63.43;101303.84;5075015;28;20054;-62
2023/12/20 09:10:22;;;;;;;0.40;0.40;;;;;;;13.89;64.20;101298.63;5079088;28;20409;-61
2023/12/20 09:12:48;;;;;;;0.20;0.20;;;;;;;14.03;64.71;101296.50;5049849;28;20037;-61
2023/12/20 09:15:14;;;;;;;0.28;0.28;;;;;;;13.88;65.09;101288.03;5045769;28;20041;-62
2023/12/20 09:17:41;;;;;;;0.30;0.30;;;;;;;14.92;60.69;101296.72;5047652;28;20037;-62
2023/12/20 09:20:08;;;;;;;0.30;0.30;;;;;;;14.45;61.81;101294.41;5048663;28;20049;-61
2023/12/20 09:22:34;;;;;;;0.38;0.38;;;;;;;14.82;60.74;101296.53;5049330;28;20041;-64
2023/12/20 09:24:59;;;;;;;0.40;0.40;;;;;;;15.14;59.04;101296.00;5048095;28;20544;-61
2023/12/20 09:27:25;;;;;;;0.30;0.30;;;;;;;15.38;59.87;101301.06;5047440;28;20029;-61
2023/12/20 09:29:50;;;;;;;0.30;0.30;;;;;;;14.87;60.39;101293.94;5048754;28;20497;-62
2023/12/20 09:32:16;;;;;;;0.20;0.20;;;;;;;14.01;63.26;101296.69;5030116;28;20378;-61
2023/12/20 09:34:41;;;;;;;0.40;0.40;;;;;;;14.26;62.25;101309.13;5048131;28;20044;-62
2023/12/20 09:37:07;;;;;;;0.25;0.25;;;;;;;14.21;63.00;101296.31;5048694;28;20461;-61
2023/12/20 09:39:33;;;;;;;0.22;0.22;;;;;;;15.05;59.75;101295.63;5049137;28;20043;-62
2023/12/20 09:42:04;;;;;;;0.22;0.22;;;;;;;14.93;59.76;101309.19;5047536;28;20508;-62
2023/12/20 09:44:30;;;;;;;0.30;0.30;;;;;;;14.78;60.56;101308.09;5048251;28;20049;-62
2023/12/20 09:46:57;;;;;;;0.30;0.30;;;;;;;14.89;61.34;101299.94;5048265;28;20060;-62
2023/12/20 09:49:23;;;;;;;0.20;0.20;;;;;;;15.33;59.38;101308.28;5048506;28;20045;-62
2023/12/20 09:51:51;;;;;;;0.30;0.30;;;;;;;14.28;62.45;101312.44;5049470;28;20071;-62
2023/12/20 09:54:18;;;;;;;0.20;0.20;;;;;;;14.46;61.13;101305.03;5048097;28;20061;-62
2023/12/20 09:56:47;;;;;;;0.30;0.30;;;;;;;15.06;60.49;101323.47;5047452;28;20068;-61
2023/12/20 09:59:13;;;;;;;0.30;0.30;;;;;;;14.79;60.67;101317.84;5048135;28;20036;-62
2023/12/20 10:01:39;;;;;;;0.20;0.20;;;;;;;14.49;61.86;101319.91;5050514;28;20047;-61
2023/12/20 10:04:11;;;;;;;0.25;0.25;;;;;;;15.42;58.80;101313.09;5047765;28;20462;-61
2023/12/20 10:06:41;;;;;;;0.30;0.30;;;;;;;14.69;62.00;101320.34;5048678;28;20055;-61
2023/12/20 10:09:06;;;;;;;0.30;0.30;;;;;;;15.03;59.90;101321.28;5048273;28;20532;-63
2023/12/20 10:11:32;;;;;;;0.50;0.50;;;;;;;14.61;61.33;101321.53;5049455;28;20045;-62
2023/12/20 10:14:01;;;;;;;0.30;0.30;;;;;;;15.11;60.34;101310.06;5053756;28;20051;-62
2023/12/20 10:16:27;;;;;;;0.32;0.32;;;;;;;14.97;60.85;101320.34;5067775;28;20140;-61
2023/12/20 10:18:54;;;;;;;0.30;0.30;;;;;;;14.65;61.58;101330.81;5068590;28;20112;-63
2023/12/20 10:21:19;;;;;;;0.40;0.40;;;;;;;15.28;60.18;101321.72;5067869;28;20052;-60
2023/12/20 10:23:45;;;;;;;0.30;0.30;;;;;;;14.89;60.89;101321.56;5067722;28;20040;-61
2023/12/20 10:26:20;;;;;;;0.40;0.40;;;;;;;15.43;59.53;101314.72;5067492;28;20544;-62
2023/12/20 10:28:45;;;;;;;0.30;0.30;;;;;;;15.56;59.27;101316.28;5067338;28;20781;-62
2023/12/20 10:31:11;;;;;;;0.20;0.20;;;;;;;14.91;61.66;101307.78;5067352;28;20139;-62
2023/12/20 10:33:36;;;;;;;0.20;0.20;;;;;;;14.95;60.55;101308.94;5067648;28;20124;-62
2023/12/20 10:36:02;;;;;;;0.30;0.30;;;;;;;14.75;61.96;101303.97;5067456;28;20046;-62
2023/12/20 10:38:30;;;;;;;0.20;0.20;;;;;;;15.01;60.45;101324.22;5067965;28;20044;-60
2023/12/20 10:41:00;;;;;;;0.40;0.40;;;;;;;14.54;63.66;101320.03;5067129;28;20131;-61
2023/12/20 10:43:28;;;;;;;0.40;0.40;;;;;;;15.25;62.55;101298.66;5067162;28;20055;-61
2023/12/20 10:45:53;;;;;;;0.30;0.30;;;;;;;15.17;62.16;101299.09;5067796;28;20060;-63
2023/12/20 10:48:21;;;;;;;0.30;0.30;;;;;;;15.28;62.22;101303.59;5067713;28;20038;-61
2023/12/20 10:50:47;;;;;;;0.40;0.40;;;;;;;15.23;62.53;101297.28;5066886;28;20151;-60
2023/12/20 10:53:13;;;;;;;0.38;0.38;;;;;;;14.15;66.67;101291.91;5067514;28;20047;-62
2023/12/20 10:55:38;;;;;;;0.25;0.25;;;;;;;15.02;63.08;101303.41;5067132;28;20048;-63
2023/12/20 10:58:08;;;;;;;0.17;0.17;;;;;;;12.60;67.22;101350.81;5067516;28;20469;-63
2023/12/20 11:00:38;;;;;;;0.30;0.30;;;;;;;12.33;68.86;101310.69;5067471;28;20086;-64
2023/12/20 11:03:06;;;;;;;0.40;0.40;;;;;;;11.61;71.04;101336.66;5067116;28;20040;-65
2023/12/20 11:05:55;;;;;;;0.38;0.38;;;;;;;12.14;71.68;101319.81;5065070;28;20135;-62
2023/12/20 11:08:41;;;;;;;0.50;0.50;;;;;;;11.59;72.85;101327.97;5066539;28;20041;-62
2023/12/20 11:11:23;;;;;;;0.30;0.30;;;;;;;12.57;71.17;101324.28;5061360;28;20036;-62
2023/12/20 11:13:57;;;;;;;0.40;0.40;;;;;;;12.57;70.94;101319.72;5061389;28;20071;-62
2023/12/20 11:16:22;;;;;;;0.60;0.60;;;;;;;13.04;68.21;101305.41;5070160;28;20410;-62
2023/12/20 11:18:50;;;;;;;0.40;0.40;;;;;;;13.29;67.39;101315.22;5067151;28;20032;-62